KOTM/OTM METAR and TAF weather

Enter ICAO airport designator
Station Type Date Time Source
KOTM METAR 2022/01/18 05:53 UTC NOAA

KOTM 180553Z AUTO 10006KT 10SM CLR M04/M06 A2990 RMK AO2 SLP136 T10391056 11022 21083 400061083 58018


Station Type Date Time Source
KOTM Decoded METAR 2022/01/18 05:53 UTC NOAA

OTTUMWA INDUSTRIAL AIRPORT, IA, United States (KOTM) 41-06N 092-27W 256M
Jan 18, 2022 - 12:53 AM EST / 2022.01.18 0553 UTC
Wind: from the E (100 degrees) at 7 MPH (6 KT):0
Visibility: 10 mile(s):0
Sky conditions: clear
Temperature: 25.0 F (-3.9 C)
Windchill: 17 F (-8 C):1
Dew Point: 21.9 F (-5.6 C)
Relative Humidity: 87%
Pressure (altimeter): 29.9 in. Hg (1012 hPa)
Pressure tendency: 0.05 inches (1.8 hPa) lower than three hours ago
ob: KOTM 180553Z AUTO 10006KT 10SM CLR M04/M06 A2990 RMK AO2 SLP136 T10391056 11022 21083 400061083 58018
cycle: 6

Station Type Date Time Source
KOTM TAF 2022/01/18 06:39 UTC NOAA

TAF KOTM 180535Z 1806/1906 14009KT P6SM SCT090
FM181300 19007KT P6SM BKN200
FM181800 21011G15KT P6SM BKN200
FM190500 32012G23KT P6SM BKN035

Example: see airport list